sensor_id;sensor_type;location;lat;lon;timestamp;P1;durP1;ratioP1;P2;durP2;ratioP2
13173;SDS011;6652;48.802;9.190;2023-04-06T00:01:03;14.10;;;7.50;;
13173;SDS011;6652;48.802;9.190;2023-04-06T00:03:30;19.33;;;9.43;;
13173;SDS011;6652;48.802;9.190;2023-04-06T00:05:57;23.52;;;11.80;;
13173;SDS011;6652;48.802;9.190;2023-04-06T00:08:24;17.30;;;8.82;;
13173;SDS011;6652;48.802;9.190;2023-04-06T00:10:52;28.73;;;11.25;;
13173;SDS011;6652;48.802;9.190;2023-04-06T00:13:19;21.15;;;10.65;;
13173;SDS011;6652;48.802;9.190;2023-04-06T00:15:46;21.85;;;10.52;;
13173;SDS011;6652;48.802;9.190;2023-04-06T00:18:14;23.17;;;10.82;;
13173;SDS011;6652;48.802;9.190;2023-04-06T00:20:41;22.15;;;10.02;;
13173;SDS011;6652;48.802;9.190;2023-04-06T00:23:08;21.73;;;11.13;;
13173;SDS011;6652;48.802;9.190;2023-04-06T00:25:35;29.38;;;11.88;;
13173;SDS011;6652;48.802;9.190;2023-04-06T00:28:02;29.95;;;12.15;;
13173;SDS011;6652;48.802;9.190;2023-04-06T00:30:29;24.08;;;11.43;;
13173;SDS011;6652;48.802;9.190;2023-04-06T00:32:56;24.27;;;10.05;;
13173;SDS011;6652;48.802;9.190;2023-04-06T00:35:25;23.27;;;10.27;;
13173;SDS011;6652;48.802;9.190;2023-04-06T00:37:52;20.08;;;9.95;;
13173;SDS011;6652;48.802;9.190;2023-04-06T00:40:19;21.50;;;10.55;;
13173;SDS011;6652;48.802;9.190;2023-04-06T00:42:46;21.00;;;10.55;;
13173;SDS011;6652;48.802;9.190;2023-04-06T00:45:13;22.13;;;10.77;;
13173;SDS011;6652;48.802;9.190;2023-04-06T00:47:40;20.10;;;11.45;;
13173;SDS011;6652;48.802;9.190;2023-04-06T00:50:07;22.63;;;10.40;;
13173;SDS011;6652;48.802;9.190;2023-04-06T00:52:35;20.38;;;11.00;;
13173;SDS011;6652;48.802;9.190;2023-04-06T00:55:03;17.05;;;10.68;;
13173;SDS011;6652;48.802;9.190;2023-04-06T00:57:30;22.27;;;10.93;;
13173;SDS011;6652;48.802;9.190;2023-04-06T00:59:57;27.33;;;11.25;;
13173;SDS011;6652;48.802;9.190;2023-04-06T01:02:24;18.85;;;11.52;;
13173;SDS011;6652;48.802;9.190;2023-04-06T01:04:51;26.33;;;11.90;;
13173;SDS011;6652;48.802;9.190;2023-04-06T01:07:19;22.02;;;11.70;;
13173;SDS011;6652;48.802;9.190;2023-04-06T01:09:47;20.85;;;11.25;;
13173;SDS011;6652;48.802;9.190;2023-04-06T01:12:14;25.73;;;11.85;;
13173;SDS011;6652;48.802;9.190;2023-04-06T01:14:41;24.75;;;11.90;;
13173;SDS011;6652;48.802;9.190;2023-04-06T01:17:08;25.90;;;12.63;;
13173;SDS011;6652;48.802;9.190;2023-04-06T01:19:35;22.13;;;11.27;;
13173;SDS011;6652;48.802;9.190;2023-04-06T01:22:03;22.67;;;11.27;;
13173;SDS011;6652;48.802;9.190;2023-04-06T01:24:32;25.25;;;12.98;;
13173;SDS011;6652;48.802;9.190;2023-04-06T01:26:59;24.13;;;12.57;;
13173;SDS011;6652;48.802;9.190;2023-04-06T01:29:27;28.17;;;12.10;;
13173;SDS011;6652;48.802;9.190;2023-04-06T01:31:53;22.00;;;12.27;;
13173;SDS011;6652;48.802;9.190;2023-04-06T01:34:20;29.70;;;11.88;;
13173;SDS011;6652;48.802;9.190;2023-04-06T01:36:47;25.00;;;11.40;;
13173;SDS011;6652;48.802;9.190;2023-04-06T01:39:15;21.27;;;12.38;;
13173;SDS011;6652;48.802;9.190;2023-04-06T01:41:43;23.35;;;11.98;;
13173;SDS011;6652;48.802;9.190;2023-04-06T01:44:12;23.80;;;12.25;;
13173;SDS011;6652;48.802;9.190;2023-04-06T01:46:39;28.45;;;12.20;;
13173;SDS011;6652;48.802;9.190;2023-04-06T01:49:06;22.52;;;12.80;;
13173;SDS011;6652;48.802;9.190;2023-04-06T01:51:33;25.05;;;13.02;;
13173;SDS011;6652;48.802;9.190;2023-04-06T01:54:00;23.50;;;12.15;;
13173;SDS011;6652;48.802;9.190;2023-04-06T01:56:26;24.58;;;13.00;;
13173;SDS011;6652;48.802;9.190;2023-04-06T01:58:55;29.50;;;12.07;;
13173;SDS011;6652;48.802;9.190;2023-04-06T02:01:22;23.63;;;12.48;;
13173;SDS011;6652;48.802;9.190;2023-04-06T02:03:49;25.65;;;12.20;;
13173;SDS011;6652;48.802;9.190;2023-04-06T02:06:16;28.02;;;12.93;;
13173;SDS011;6652;48.802;9.190;2023-04-06T02:08:42;25.45;;;13.70;;
13173;SDS011;6652;48.802;9.190;2023-04-06T02:11:09;31.38;;;13.05;;
13173;SDS011;6652;48.802;9.190;2023-04-06T02:13:36;23.77;;;13.13;;
13173;SDS011;6652;48.802;9.190;2023-04-06T02:16:05;33.83;;;13.75;;
13173;SDS011;6652;48.802;9.190;2023-04-06T02:18:32;25.17;;;14.43;;
13173;SDS011;6652;48.802;9.190;2023-04-06T02:20:59;23.45;;;13.25;;
13173;SDS011;6652;48.802;9.190;2023-04-06T02:23:26;30.10;;;14.82;;
13173;SDS011;6652;48.802;9.190;2023-04-06T02:25:53;32.42;;;13.88;;
13173;SDS011;6652;48.802;9.190;2023-04-06T02:28:20;28.52;;;12.18;;
13173;SDS011;6652;48.802;9.190;2023-04-06T02:30:47;26.02;;;13.25;;
13173;SDS011;6652;48.802;9.190;2023-04-06T02:33:15;27.27;;;14.25;;
13173;SDS011;6652;48.802;9.190;2023-04-06T02:35:43;23.67;;;13.07;;
13173;SDS011;6652;48.802;9.190;2023-04-06T02:38:11;26.13;;;13.40;;
13173;SDS011;6652;48.802;9.190;2023-04-06T02:40:37;26.35;;;13.48;;
13173;SDS011;6652;48.802;9.190;2023-04-06T02:43:05;24.02;;;13.80;;
13173;SDS011;6652;48.802;9.190;2023-04-06T02:45:31;25.60;;;13.65;;
13173;SDS011;6652;48.802;9.190;2023-04-06T02:47:59;22.17;;;12.57;;
13173;SDS011;6652;48.802;9.190;2023-04-06T02:50:27;25.75;;;12.55;;
13173;SDS011;6652;48.802;9.190;2023-04-06T02:52:54;23.27;;;12.73;;
13173;SDS011;6652;48.802;9.190;2023-04-06T02:55:21;26.60;;;13.63;;
13173;SDS011;6652;48.802;9.190;2023-04-06T02:57:48;25.58;;;12.57;;
13173;SDS011;6652;48.802;9.190;2023-04-06T03:00:15;22.48;;;12.70;;
13173;SDS011;6652;48.802;9.190;2023-04-06T03:02:42;24.27;;;13.00;;
13173;SDS011;6652;48.802;9.190;2023-04-06T03:05:10;23.67;;;12.38;;
13173;SDS011;6652;48.802;9.190;2023-04-06T03:07:38;21.92;;;12.43;;
13173;SDS011;6652;48.802;9.190;2023-04-06T03:10:05;31.45;;;14.23;;
13173;SDS011;6652;48.802;9.190;2023-04-06T03:12:34;23.48;;;13.32;;
13173;SDS011;6652;48.802;9.190;2023-04-06T03:15:01;27.35;;;13.75;;
13173;SDS011;6652;48.802;9.190;2023-04-06T03:17:28;24.88;;;13.57;;
13173;SDS011;6652;48.802;9.190;2023-04-06T03:19:55;24.58;;;13.70;;
13173;SDS011;6652;48.802;9.190;2023-04-06T03:22:22;25.80;;;13.73;;
13173;SDS011;6652;48.802;9.190;2023-04-06T03:24:50;30.80;;;13.82;;
13173;SDS011;6652;48.802;9.190;2023-04-06T03:27:17;29.58;;;13.65;;
13173;SDS011;6652;48.802;9.190;2023-04-06T03:29:44;25.15;;;13.52;;
13173;SDS011;6652;48.802;9.190;2023-04-06T03:32:11;31.92;;;13.60;;
13173;SDS011;6652;48.802;9.190;2023-04-06T03:34:38;26.92;;;13.13;;
13173;SDS011;6652;48.802;9.190;2023-04-06T03:37:05;27.25;;;12.95;;
13173;SDS011;6652;48.802;9.190;2023-04-06T03:39:32;24.17;;;12.85;;
13173;SDS011;6652;48.802;9.190;2023-04-06T03:42:00;26.15;;;13.73;;
13173;SDS011;6652;48.802;9.190;2023-04-06T03:44:27;24.60;;;13.65;;
13173;SDS011;6652;48.802;9.190;2023-04-06T03:46:54;29.52;;;13.65;;
13173;SDS011;6652;48.802;9.190;2023-04-06T03:49:23;29.83;;;14.00;;
13173;SDS011;6652;48.802;9.190;2023-04-06T03:51:50;29.15;;;13.13;;
13173;SDS011;6652;48.802;9.190;2023-04-06T03:54:17;34.38;;;14.23;;
13173;SDS011;6652;48.802;9.190;2023-04-06T03:56:43;28.73;;;14.40;;
13173;SDS011;6652;48.802;9.190;2023-04-06T03:59:12;29.58;;;14.48;;
13173;SDS011;6652;48.802;9.190;2023-04-06T04:01:39;23.70;;;14.00;;
13173;SDS011;6652;48.802;9.190;2023-04-06T04:04:05;24.10;;;12.30;;
13173;SDS011;6652;48.802;9.190;2023-04-06T04:06:32;28.60;;;13.55;;
13173;SDS011;6652;48.802;9.190;2023-04-06T04:09:01;28.25;;;13.57;;
13173;SDS011;6652;48.802;9.190;2023-04-06T04:11:28;31.85;;;13.32;;
13173;SDS011;6652;48.802;9.190;2023-04-06T04:13:55;33.58;;;14.00;;
13173;SDS011;6652;48.802;9.190;2023-04-06T04:16:23;25.48;;;13.55;;
13173;SDS011;6652;48.802;9.190;2023-04-06T04:18:50;24.27;;;14.00;;
13173;SDS011;6652;48.802;9.190;2023-04-06T04:21:17;26.77;;;14.55;;
13173;SDS011;6652;48.802;9.190;2023-04-06T04:23:44;25.25;;;13.02;;
13173;SDS011;6652;48.802;9.190;2023-04-06T04:26:11;26.45;;;14.27;;
13173;SDS011;6652;48.802;9.190;2023-04-06T04:28:38;28.83;;;14.00;;
13173;SDS011;6652;48.802;9.190;2023-04-06T04:31:05;30.10;;;13.23;;
13173;SDS011;6652;48.802;9.190;2023-04-06T04:33:33;31.90;;;14.82;;
13173;SDS011;6652;48.802;9.190;2023-04-06T04:36:00;25.60;;;13.43;;
13173;SDS011;6652;48.802;9.190;2023-04-06T04:38:27;32.72;;;14.45;;
13173;SDS011;6652;48.802;9.190;2023-04-06T04:40:54;34.67;;;14.50;;
13173;SDS011;6652;48.802;9.190;2023-04-06T04:43:21;29.40;;;14.18;;
13173;SDS011;6652;48.802;9.190;2023-04-06T04:45:48;29.73;;;13.32;;
13173;SDS011;6652;48.802;9.190;2023-04-06T04:48:15;33.35;;;13.90;;
13173;SDS011;6652;48.802;9.190;2023-04-06T04:50:43;27.05;;;12.77;;
13173;SDS011;6652;48.802;9.190;2023-04-06T04:53:10;30.77;;;14.45;;
13173;SDS011;6652;48.802;9.190;2023-04-06T04:55:37;34.42;;;14.88;;
13173;SDS011;6652;48.802;9.190;2023-04-06T04:58:04;27.08;;;14.40;;
13173;SDS011;6652;48.802;9.190;2023-04-06T05:00:30;22.67;;;13.23;;
13173;SDS011;6652;48.802;9.190;2023-04-06T05:02:57;27.75;;;14.45;;
13173;SDS011;6652;48.802;9.190;2023-04-06T05:05:24;35.95;;;13.88;;
13173;SDS011;6652;48.802;9.190;2023-04-06T05:07:52;31.80;;;12.65;;
13173;SDS011;6652;48.802;9.190;2023-04-06T05:10:21;25.42;;;12.38;;
13173;SDS011;6652;48.802;9.190;2023-04-06T05:12:49;24.48;;;12.57;;
13173;SDS011;6652;48.802;9.190;2023-04-06T05:15:16;25.33;;;12.52;;
13173;SDS011;6652;48.802;9.190;2023-04-06T05:17:43;24.45;;;11.82;;
13173;SDS011;6652;48.802;9.190;2023-04-06T05:20:10;27.75;;;12.98;;
13173;SDS011;6652;48.802;9.190;2023-04-06T05:22:37;22.92;;;12.52;;
13173;SDS011;6652;48.802;9.190;2023-04-06T05:25:06;28.23;;;11.98;;
13173;SDS011;6652;48.802;9.190;2023-04-06T05:27:34;27.17;;;12.52;;
13173;SDS011;6652;48.802;9.190;2023-04-06T05:30:01;24.98;;;12.20;;
13173;SDS011;6652;48.802;9.190;2023-04-06T05:32:28;22.73;;;11.77;;
13173;SDS011;6652;48.802;9.190;2023-04-06T05:34:56;24.67;;;11.40;;
13173;SDS011;6652;48.802;9.190;2023-04-06T05:37:23;23.33;;;11.40;;
13173;SDS011;6652;48.802;9.190;2023-04-06T05:39:50;25.15;;;11.07;;
13173;SDS011;6652;48.802;9.190;2023-04-06T05:42:18;32.80;;;13.73;;
13173;SDS011;6652;48.802;9.190;2023-04-06T05:44:45;25.15;;;12.13;;
13173;SDS011;6652;48.802;9.190;2023-04-06T05:47:12;22.88;;;11.18;;
13173;SDS011;6652;48.802;9.190;2023-04-06T05:49:39;25.48;;;12.15;;
13173;SDS011;6652;48.802;9.190;2023-04-06T05:52:07;20.13;;;10.68;;
13173;SDS011;6652;48.802;9.190;2023-04-06T05:54:34;21.58;;;10.93;;
13173;SDS011;6652;48.802;9.190;2023-04-06T05:57:02;24.80;;;11.27;;
13173;SDS011;6652;48.802;9.190;2023-04-06T05:59:30;24.13;;;10.38;;
13173;SDS011;6652;48.802;9.190;2023-04-06T06:01:57;24.27;;;10.35;;
13173;SDS011;6652;48.802;9.190;2023-04-06T06:04:26;22.80;;;10.35;;
13173;SDS011;6652;48.802;9.190;2023-04-06T06:06:53;21.73;;;9.93;;
13173;SDS011;6652;48.802;9.190;2023-04-06T06:09:20;23.45;;;10.20;;
13173;SDS011;6652;48.802;9.190;2023-04-06T06:11:46;17.70;;;9.63;;
13173;SDS011;6652;48.802;9.190;2023-04-06T06:14:14;20.35;;;10.18;;
13173;SDS011;6652;48.802;9.190;2023-04-06T06:16:43;18.95;;;9.02;;
13173;SDS011;6652;48.802;9.190;2023-04-06T06:19:10;22.45;;;10.18;;
13173;SDS011;6652;48.802;9.190;2023-04-06T06:21:36;19.02;;;9.10;;
13173;SDS011;6652;48.802;9.190;2023-04-06T06:24:03;21.70;;;9.93;;
13173;SDS011;6652;48.802;9.190;2023-04-06T06:26:30;18.73;;;10.13;;
13173;SDS011;6652;48.802;9.190;2023-04-06T06:28:57;19.92;;;10.18;;
13173;SDS011;6652;48.802;9.190;2023-04-06T06:31:24;17.48;;;9.65;;
13173;SDS011;6652;48.802;9.190;2023-04-06T06:33:52;15.05;;;10.18;;
13173;SDS011;6652;48.802;9.190;2023-04-06T06:36:19;14.35;;;9.27;;
13173;SDS011;6652;48.802;9.190;2023-04-06T06:38:46;13.85;;;9.13;;
13173;SDS011;6652;48.802;9.190;2023-04-06T06:41:13;24.13;;;9.45;;
13173;SDS011;6652;48.802;9.190;2023-04-06T06:43:40;18.92;;;9.50;;
13173;SDS011;6652;48.802;9.190;2023-04-06T06:46:07;16.52;;;9.05;;
13173;SDS011;6652;48.802;9.190;2023-04-06T06:48:34;17.05;;;9.30;;
13173;SDS011;6652;48.802;9.190;2023-04-06T06:51:02;15.18;;;9.43;;
13173;SDS011;6652;48.802;9.190;2023-04-06T06:53:29;16.20;;;9.10;;
13173;SDS011;6652;48.802;9.190;2023-04-06T06:55:56;21.10;;;10.40;;
13173;SDS011;6652;48.802;9.190;2023-04-06T06:58:23;18.58;;;9.35;;
13173;SDS011;6652;48.802;9.190;2023-04-06T07:00:50;19.52;;;9.95;;
13173;SDS011;6652;48.802;9.190;2023-04-06T07:03:21;19.27;;;10.60;;
13173;SDS011;6652;48.802;9.190;2023-04-06T07:05:49;21.58;;;9.90;;
13173;SDS011;6652;48.802;9.190;2023-04-06T07:08:19;24.00;;;10.98;;
13173;SDS011;6652;48.802;9.190;2023-04-06T07:10:46;30.85;;;11.13;;
13173;SDS011;6652;48.802;9.190;2023-04-06T07:13:14;24.08;;;10.93;;
13173;SDS011;6652;48.802;9.190;2023-04-06T07:15:44;22.60;;;11.07;;
13173;SDS011;6652;48.802;9.190;2023-04-06T07:18:11;29.13;;;12.02;;
13173;SDS011;6652;48.802;9.190;2023-04-06T07:20:38;22.05;;;10.40;;
13173;SDS011;6652;48.802;9.190;2023-04-06T07:23:05;16.40;;;10.02;;
13173;SDS011;6652;48.802;9.190;2023-04-06T07:25:33;17.88;;;9.95;;
13173;SDS011;6652;48.802;9.190;2023-04-06T07:28:00;23.30;;;10.48;;
13173;SDS011;6652;48.802;9.190;2023-04-06T07:30:29;18.77;;;10.40;;
13173;SDS011;6652;48.802;9.190;2023-04-06T07:32:56;16.10;;;9.93;;
13173;SDS011;6652;48.802;9.190;2023-04-06T07:35:24;25.40;;;10.27;;
13173;SDS011;6652;48.802;9.190;2023-04-06T07:37:52;14.25;;;9.75;;
13173;SDS011;6652;48.802;9.190;2023-04-06T07:40:19;21.73;;;10.77;;
13173;SDS011;6652;48.802;9.190;2023-04-06T07:42:47;19.55;;;11.05;;
13173;SDS011;6652;48.802;9.190;2023-04-06T07:45:15;15.55;;;10.00;;
13173;SDS011;6652;48.802;9.190;2023-04-06T07:47:42;23.75;;;11.35;;
13173;SDS011;6652;48.802;9.190;2023-04-06T07:50:09;19.85;;;10.60;;
13173;SDS011;6652;48.802;9.190;2023-04-06T07:52:36;17.98;;;10.77;;
13173;SDS011;6652;48.802;9.190;2023-04-06T07:55:04;22.92;;;9.77;;
13173;SDS011;6652;48.802;9.190;2023-04-06T07:57:31;18.35;;;10.90;;
13173;SDS011;6652;48.802;9.190;2023-04-06T07:59:59;24.73;;;10.88;;
13173;SDS011;6652;48.802;9.190;2023-04-06T08:02:27;19.35;;;10.77;;
13173;SDS011;6652;48.802;9.190;2023-04-06T08:04:54;24.05;;;10.98;;
13173;SDS011;6652;48.802;9.190;2023-04-06T08:07:21;21.33;;;11.32;;
13173;SDS011;6652;48.802;9.190;2023-04-06T08:09:47;22.65;;;11.57;;
13173;SDS011;6652;48.802;9.190;2023-04-06T08:12:15;18.98;;;10.63;;
13173;SDS011;6652;48.802;9.190;2023-04-06T08:14:42;22.42;;;9.98;;
13173;SDS011;6652;48.802;9.190;2023-04-06T08:17:10;16.65;;;10.80;;
13173;SDS011;6652;48.802;9.190;2023-04-06T08:19:37;20.15;;;10.70;;
13173;SDS011;6652;48.802;9.190;2023-04-06T08:22:03;22.05;;;12.35;;
13173;SDS011;6652;48.802;9.190;2023-04-06T08:24:30;27.23;;;11.93;;
13173;SDS011;6652;48.802;9.190;2023-04-06T08:26:57;20.58;;;11.90;;
13173;SDS011;6652;48.802;9.190;2023-04-06T08:29:24;24.83;;;11.70;;
13173;SDS011;6652;48.802;9.190;2023-04-06T08:31:51;21.60;;;10.73;;
13173;SDS011;6652;48.802;9.190;2023-04-06T08:34:20;27.70;;;12.50;;
13173;SDS011;6652;48.802;9.190;2023-04-06T08:36:47;25.85;;;11.27;;
13173;SDS011;6652;48.802;9.190;2023-04-06T08:39:15;21.83;;;11.40;;
13173;SDS011;6652;48.802;9.190;2023-04-06T08:41:42;24.23;;;10.70;;
13173;SDS011;6652;48.802;9.190;2023-04-06T08:44:09;20.80;;;11.90;;
13173;SDS011;6652;48.802;9.190;2023-04-06T08:46:37;23.10;;;11.48;;
13173;SDS011;6652;48.802;9.190;2023-04-06T08:49:04;30.75;;;12.15;;
13173;SDS011;6652;48.802;9.190;2023-04-06T08:51:34;20.80;;;11.80;;
13173;SDS011;6652;48.802;9.190;2023-04-06T08:54:03;18.70;;;11.27;;
13173;SDS011;6652;48.802;9.190;2023-04-06T08:56:29;24.30;;;11.23;;
13173;SDS011;6652;48.802;9.190;2023-04-06T08:58:57;20.60;;;11.27;;
13173;SDS011;6652;48.802;9.190;2023-04-06T09:01:25;25.50;;;11.55;;
13173;SDS011;6652;48.802;9.190;2023-04-06T09:03:55;20.40;;;11.32;;
13173;SDS011;6652;48.802;9.190;2023-04-06T09:06:24;20.67;;;11.40;;
13173;SDS011;6652;48.802;9.190;2023-04-06T09:08:53;19.77;;;11.07;;
13173;SDS011;6652;48.802;9.190;2023-04-06T09:11:21;21.75;;;10.35;;
13173;SDS011;6652;48.802;9.190;2023-04-06T09:13:49;14.88;;;10.07;;
13173;SDS011;6652;48.802;9.190;2023-04-06T09:16:18;19.83;;;11.18;;
13173;SDS011;6652;48.802;9.190;2023-04-06T09:18:45;17.80;;;9.82;;
13173;SDS011;6652;48.802;9.190;2023-04-06T09:21:12;22.50;;;10.23;;
13173;SDS011;6652;48.802;9.190;2023-04-06T09:23:42;16.77;;;9.02;;
13173;SDS011;6652;48.802;9.190;2023-04-06T09:26:11;15.88;;;8.88;;
13173;SDS011;6652;48.802;9.190;2023-04-06T09:28:42;16.88;;;8.82;;
13173;SDS011;6652;48.802;9.190;2023-04-06T09:31:13;17.35;;;8.60;;
13173;SDS011;6652;48.802;9.190;2023-04-06T09:33:41;12.60;;;8.75;;
13173;SDS011;6652;48.802;9.190;2023-04-06T09:36:10;12.88;;;9.38;;
13173;SDS011;6652;48.802;9.190;2023-04-06T09:38:39;15.30;;;9.38;;
13173;SDS011;6652;48.802;9.190;2023-04-06T09:41:21;17.73;;;9.90;;
13173;SDS011;6652;48.802;9.190;2023-04-06T09:43:49;12.82;;;9.00;;
13173;SDS011;6652;48.802;9.190;2023-04-06T09:46:17;17.30;;;10.23;;
13173;SDS011;6652;48.802;9.190;2023-04-06T09:48:46;11.48;;;8.80;;
13173;SDS011;6652;48.802;9.190;2023-04-06T09:51:15;10.32;;;7.68;;
13173;SDS011;6652;48.802;9.190;2023-04-06T09:53:44;12.40;;;8.68;;
13173;SDS011;6652;48.802;9.190;2023-04-06T09:56:16;10.48;;;6.78;;
13173;SDS011;6652;48.802;9.190;2023-04-06T09:58:47;10.32;;;7.53;;
13173;SDS011;6652;48.802;9.190;2023-04-06T10:01:20;11.10;;;7.65;;
13173;SDS011;6652;48.802;9.190;2023-04-06T10:03:50;11.57;;;6.85;;
13173;SDS011;6652;48.802;9.190;2023-04-06T10:06:28;14.98;;;7.95;;
13173;SDS011;6652;48.802;9.190;2023-04-06T10:09:00;7.82;;;5.65;;
13173;SDS011;6652;48.802;9.190;2023-04-06T10:11:28;11.93;;;7.28;;
13173;SDS011;6652;48.802;9.190;2023-04-06T10:13:57;12.90;;;7.03;;
13173;SDS011;6652;48.802;9.190;2023-04-06T10:16:25;16.98;;;10.15;;
13173;SDS011;6652;48.802;9.190;2023-04-06T10:18:54;19.90;;;9.63;;
13173;SDS011;6652;48.802;9.190;2023-04-06T10:21:24;15.57;;;8.02;;
13173;SDS011;6652;48.802;9.190;2023-04-06T10:23:54;14.52;;;8.43;;
13173;SDS011;6652;48.802;9.190;2023-04-06T10:26:25;14.35;;;8.38;;
13173;SDS011;6652;48.802;9.190;2023-04-06T10:28:51;12.15;;;8.40;;
13173;SDS011;6652;48.802;9.190;2023-04-06T10:31:25;13.65;;;9.07;;
13173;SDS011;6652;48.802;9.190;2023-04-06T10:33:55;13.63;;;8.40;;
13173;SDS011;6652;48.802;9.190;2023-04-06T10:36:24;13.32;;;8.98;;
13173;SDS011;6652;48.802;9.190;2023-04-06T10:38:55;14.57;;;8.68;;
13173;SDS011;6652;48.802;9.190;2023-04-06T10:41:23;13.70;;;8.25;;
13173;SDS011;6652;48.802;9.190;2023-04-06T10:43:58;11.18;;;8.63;;
13173;SDS011;6652;48.802;9.190;2023-04-06T10:46:28;14.93;;;8.05;;
13173;SDS011;6652;48.802;9.190;2023-04-06T10:48:56;12.85;;;7.70;;
13173;SDS011;6652;48.802;9.190;2023-04-06T10:51:27;12.80;;;8.00;;
13173;SDS011;6652;48.802;9.190;2023-04-06T10:53:54;26.95;;;8.77;;
13173;SDS011;6652;48.802;9.190;2023-04-06T10:56:23;11.48;;;7.85;;
13173;SDS011;6652;48.802;9.190;2023-04-06T10:58:53;11.65;;;7.40;;
13173;SDS011;6652;48.802;9.190;2023-04-06T11:01:22;11.95;;;7.65;;
13173;SDS011;6652;48.802;9.190;2023-04-06T11:03:53;12.23;;;7.95;;
13173;SDS011;6652;48.802;9.190;2023-04-06T11:06:23;12.50;;;6.95;;
13173;SDS011;6652;48.802;9.190;2023-04-06T11:08:51;12.30;;;7.38;;
13173;SDS011;6652;48.802;9.190;2023-04-06T11:11:20;11.25;;;7.43;;
13173;SDS011;6652;48.802;9.190;2023-04-06T11:13:49;11.05;;;7.15;;
13173;SDS011;6652;48.802;9.190;2023-04-06T11:16:19;11.48;;;6.35;;
13173;SDS011;6652;48.802;9.190;2023-04-06T11:18:47;14.93;;;6.93;;
13173;SDS011;6652;48.802;9.190;2023-04-06T11:21:16;11.60;;;7.28;;
13173;SDS011;6652;48.802;9.190;2023-04-06T11:23:44;13.13;;;7.50;;
13173;SDS011;6652;48.802;9.190;2023-04-06T11:26:11;16.90;;;7.47;;
13173;SDS011;6652;48.802;9.190;2023-04-06T11:28:39;13.07;;;7.97;;
13173;SDS011;6652;48.802;9.190;2023-04-06T11:31:07;13.38;;;7.95;;
13173;SDS011;6652;48.802;9.190;2023-04-06T11:33:35;12.05;;;7.45;;
13173;SDS011;6652;48.802;9.190;2023-04-06T11:36:02;12.48;;;7.20;;
13173;SDS011;6652;48.802;9.190;2023-04-06T11:38:31;10.93;;;7.32;;
13173;SDS011;6652;48.802;9.190;2023-04-06T11:40:58;15.88;;;7.22;;
13173;SDS011;6652;48.802;9.190;2023-04-06T11:43:27;10.18;;;6.53;;
13173;SDS011;6652;48.802;9.190;2023-04-06T11:45:59;10.23;;;5.88;;
13173;SDS011;6652;48.802;9.190;2023-04-06T11:48:27;11.63;;;6.65;;
13173;SDS011;6652;48.802;9.190;2023-04-06T11:50:58;16.02;;;7.40;;
13173;SDS011;6652;48.802;9.190;2023-04-06T11:53:27;10.70;;;6.78;;
13173;SDS011;6652;48.802;9.190;2023-04-06T11:55:56;10.65;;;6.85;;
13173;SDS011;6652;48.802;9.190;2023-04-06T11:58:24;13.15;;;5.75;;
13173;SDS011;6652;48.802;9.190;2023-04-06T12:00:52;15.68;;;7.28;;
13173;SDS011;6652;48.802;9.190;2023-04-06T12:03:19;11.90;;;7.22;;
13173;SDS011;6652;48.802;9.190;2023-04-06T12:05:46;12.02;;;7.63;;
13173;SDS011;6652;48.802;9.190;2023-04-06T12:08:13;11.40;;;6.90;;
13173;SDS011;6652;48.802;9.190;2023-04-06T12:10:40;15.73;;;8.00;;
13173;SDS011;6652;48.802;9.190;2023-04-06T12:13:14;14.77;;;6.78;;
13173;SDS011;6652;48.802;9.190;2023-04-06T12:15:40;9.70;;;6.07;;
13173;SDS011;6652;48.802;9.190;2023-04-06T12:18:07;13.88;;;7.40;;
13173;SDS011;6652;48.802;9.190;2023-04-06T12:20:34;11.75;;;6.82;;
13173;SDS011;6652;48.802;9.190;2023-04-06T12:23:01;11.25;;;7.63;;
13173;SDS011;6652;48.802;9.190;2023-04-06T12:25:28;12.75;;;7.05;;
13173;SDS011;6652;48.802;9.190;2023-04-06T12:27:55;10.48;;;6.82;;
13173;SDS011;6652;48.802;9.190;2023-04-06T12:30:24;11.60;;;6.20;;
13173;SDS011;6652;48.802;9.190;2023-04-06T12:32:51;10.25;;;7.15;;
13173;SDS011;6652;48.802;9.190;2023-04-06T12:35:18;13.20;;;6.50;;
13173;SDS011;6652;48.802;9.190;2023-04-06T12:37:46;11.18;;;7.05;;
13173;SDS011;6652;48.802;9.190;2023-04-06T12:40:13;10.10;;;6.22;;
13173;SDS011;6652;48.802;9.190;2023-04-06T12:42:40;10.63;;;6.03;;
13173;SDS011;6652;48.802;9.190;2023-04-06T12:45:07;11.95;;;6.18;;
13173;SDS011;6652;48.802;9.190;2023-04-06T12:47:36;11.70;;;6.88;;
13173;SDS011;6652;48.802;9.190;2023-04-06T12:50:03;15.07;;;6.95;;
13173;SDS011;6652;48.802;9.190;2023-04-06T12:52:31;14.10;;;6.55;;
13173;SDS011;6652;48.802;9.190;2023-04-06T12:55:00;13.73;;;7.28;;
13173;SDS011;6652;48.802;9.190;2023-04-06T12:57:27;16.08;;;7.30;;
13173;SDS011;6652;48.802;9.190;2023-04-06T12:59:54;11.70;;;6.70;;
13173;SDS011;6652;48.802;9.190;2023-04-06T13:02:21;12.80;;;7.93;;
13173;SDS011;6652;48.802;9.190;2023-04-06T13:04:50;11.93;;;6.85;;
13173;SDS011;6652;48.802;9.190;2023-04-06T13:07:17;14.32;;;7.10;;
13173;SDS011;6652;48.802;9.190;2023-04-06T13:09:44;13.10;;;6.38;;
13173;SDS011;6652;48.802;9.190;2023-04-06T13:12:12;10.50;;;6.57;;
13173;SDS011;6652;48.802;9.190;2023-04-06T13:14:39;11.90;;;6.18;;
13173;SDS011;6652;48.802;9.190;2023-04-06T13:17:06;11.90;;;6.45;;
13173;SDS011;6652;48.802;9.190;2023-04-06T13:19:34;10.70;;;6.43;;
13173;SDS011;6652;48.802;9.190;2023-04-06T13:22:03;9.65;;;6.18;;
13173;SDS011;6652;48.802;9.190;2023-04-06T13:24:29;9.40;;;6.43;;
13173;SDS011;6652;48.802;9.190;2023-04-06T13:26:56;9.20;;;6.45;;
13173;SDS011;6652;48.802;9.190;2023-04-06T13:29:23;12.23;;;6.30;;
13173;SDS011;6652;48.802;9.190;2023-04-06T13:31:51;11.25;;;5.80;;
13173;SDS011;6652;48.802;9.190;2023-04-06T13:34:18;9.23;;;6.38;;
13173;SDS011;6652;48.802;9.190;2023-04-06T13:36:44;9.20;;;6.82;;
13173;SDS011;6652;48.802;9.190;2023-04-06T13:39:13;10.93;;;6.55;;
13173;SDS011;6652;48.802;9.190;2023-04-06T13:41:40;8.82;;;5.72;;
13173;SDS011;6652;48.802;9.190;2023-04-06T13:44:07;10.07;;;6.45;;
13173;SDS011;6652;48.802;9.190;2023-04-06T13:46:34;13.82;;;6.32;;
13173;SDS011;6652;48.802;9.190;2023-04-06T13:49:01;13.13;;;7.00;;
13173;SDS011;6652;48.802;9.190;2023-04-06T13:51:27;11.85;;;6.55;;
13173;SDS011;6652;48.802;9.190;2023-04-06T13:53:55;10.75;;;6.43;;
13173;SDS011;6652;48.802;9.190;2023-04-06T13:56:23;16.60;;;7.22;;
13173;SDS011;6652;48.802;9.190;2023-04-06T13:58:53;12.52;;;7.15;;
13173;SDS011;6652;48.802;9.190;2023-04-06T14:01:20;9.80;;;6.60;;
13173;SDS011;6652;48.802;9.190;2023-04-06T14:03:47;14.00;;;6.72;;
13173;SDS011;6652;48.802;9.190;2023-04-06T14:06:15;15.52;;;6.95;;
13173;SDS011;6652;48.802;9.190;2023-04-06T14:08:42;10.80;;;6.43;;
13173;SDS011;6652;48.802;9.190;2023-04-06T14:11:10;14.52;;;6.38;;
13173;SDS011;6652;48.802;9.190;2023-04-06T14:13:39;11.13;;;6.28;;
13173;SDS011;6652;48.802;9.190;2023-04-06T14:16:06;12.77;;;6.25;;
13173;SDS011;6652;48.802;9.190;2023-04-06T14:18:33;12.95;;;6.10;;
13173;SDS011;6652;48.802;9.190;2023-04-06T14:21:00;17.40;;;6.63;;
13173;SDS011;6652;48.802;9.190;2023-04-06T14:23:27;13.95;;;6.82;;
13173;SDS011;6652;48.802;9.190;2023-04-06T14:26:00;12.13;;;6.50;;
13173;SDS011;6652;48.802;9.190;2023-04-06T14:28:29;10.65;;;6.80;;
13173;SDS011;6652;48.802;9.190;2023-04-06T14:30:58;11.52;;;6.50;;
13173;SDS011;6652;48.802;9.190;2023-04-06T14:33:25;12.93;;;7.43;;
13173;SDS011;6652;48.802;9.190;2023-04-06T14:35:52;12.02;;;6.05;;
13173;SDS011;6652;48.802;9.190;2023-04-06T14:38:18;11.98;;;6.85;;
13173;SDS011;6652;48.802;9.190;2023-04-06T14:40:45;8.43;;;6.15;;
13173;SDS011;6652;48.802;9.190;2023-04-06T14:43:12;13.40;;;6.82;;